createdAt,value
2023-03-05T00:00:48.499Z,33.57
2023-03-05T00:02:51.048Z,31.02
2023-03-05T00:04:53.448Z,31.45
2023-03-05T00:06:55.937Z,31.55
2023-03-05T00:08:58.750Z,29.85
2023-03-05T00:11:04.640Z,29.10
2023-03-05T00:13:07.887Z,28.85
2023-03-05T00:15:10.777Z,29.35
2023-03-05T00:17:13.239Z,28.55
2023-03-05T00:19:15.665Z,28.45
2023-03-05T00:21:28.974Z,26.67
2023-03-05T00:23:31.553Z,28.48
2023-03-05T00:25:36.872Z,28.55
2023-03-05T00:27:39.351Z,27.92
2023-03-05T00:29:41.840Z,33.67
2023-03-05T00:31:44.998Z,36.20
2023-03-05T00:33:52.864Z,42.67
2023-03-05T00:35:55.294Z,47.50
2023-03-05T00:37:57.966Z,49.13
2023-03-05T00:40:00.455Z,50.28
2023-03-05T00:42:02.995Z,48.23
2023-03-05T00:44:05.486Z,47.10
2023-03-05T00:46:08.038Z,51.53
2023-03-05T00:48:10.534Z,49.17
2023-03-05T00:50:13.006Z,45.95
2023-03-05T00:52:15.442Z,44.07
2023-03-05T00:54:18.076Z,38.65
2023-03-05T00:56:20.564Z,37.97
2023-03-05T00:58:23.006Z,35.80
2023-03-05T01:00:25.672Z,38.83
2023-03-05T01:02:28.203Z,38.63
2023-03-05T01:04:30.674Z,37.67
2023-03-05T01:06:33.105Z,39.78
2023-03-05T01:08:36.531Z,36.22
2023-03-05T01:10:39.059Z,34.65
2023-03-05T01:12:41.515Z,34.43
2023-03-05T01:14:43.909Z,36.22
2023-03-05T01:16:47.151Z,34.25
2023-03-05T01:18:49.571Z,36.15
2023-03-05T01:20:51.963Z,36.03
2023-03-05T01:22:55.036Z,33.63
2023-03-05T01:24:57.472Z,35.45
2023-03-05T01:26:59.979Z,33.28
2023-03-05T01:29:02.758Z,32.78
2023-03-05T01:31:09.150Z,31.90
2023-03-05T01:33:11.561Z,31.87
2023-03-05T01:35:19.439Z,33.00
2023-03-05T01:37:21.877Z,32.25
2023-03-05T01:39:24.297Z,31.42
2023-03-05T01:41:27.053Z,30.05
2023-03-05T01:43:30.924Z,32.20
2023-03-05T01:45:33.586Z,31.52
2023-03-05T01:47:36.366Z,33.22
2023-03-05T01:49:41.341Z,32.30
2023-03-05T01:52:09.173Z,43.15
2023-03-05T01:54:13.158Z,40.70
2023-03-05T01:56:15.996Z,41.95
2023-03-05T01:58:18.517Z,42.50
2023-03-05T02:00:25.946Z,44.67
2023-03-05T02:02:28.384Z,41.65
2023-03-05T02:04:37.086Z,44.13
2023-03-05T02:06:40.440Z,41.17
2023-03-05T02:08:42.813Z,44.90
2023-03-05T02:10:47.225Z,41.90
2023-03-05T02:12:52.124Z,40.08
2023-03-05T02:14:59.405Z,37.93
2023-03-05T02:17:02.048Z,42.05
2023-03-05T02:19:06.341Z,44.38
2023-03-05T02:21:10.150Z,42.08
2023-03-05T02:23:13.052Z,40.70
2023-03-05T02:25:22.168Z,39.30
2023-03-05T02:27:34.972Z,44.05
2023-03-05T02:29:41.320Z,43.35
2023-03-05T02:31:43.866Z,43.58
2023-03-05T02:33:46.822Z,40.72
2023-03-05T02:35:49.354Z,40.73
2023-03-05T02:37:51.910Z,38.25
2023-03-05T02:39:54.346Z,35.28
2023-03-05T02:41:57.049Z,35.00
2023-03-05T02:43:59.465Z,34.08
2023-03-05T02:46:01.864Z,34.03
2023-03-05T02:48:04.402Z,35.88
2023-03-05T02:50:07.861Z,35.13
2023-03-05T02:52:10.257Z,39.75
2023-03-05T02:54:12.898Z,39.78
2023-03-05T02:56:15.409Z,47.30
2023-03-05T02:58:18.788Z,48.38
2023-03-05T03:00:21.543Z,49.17
2023-03-05T03:02:23.938Z,46.97
2023-03-05T03:04:26.543Z,46.03
2023-03-05T03:06:28.974Z,43.87
2023-03-05T03:08:31.456Z,42.40
2023-03-05T03:10:34.659Z,43.00
2023-03-05T03:12:41.499Z,41.50
2023-03-05T03:14:44.486Z,39.63
2023-03-05T03:16:46.998Z,43.93
2023-03-05T03:18:49.520Z,43.20
2023-03-05T03:20:51.922Z,50.45
2023-03-05T03:22:54.275Z,48.75
2023-03-05T03:24:56.710Z,44.65
2023-03-05T03:26:59.156Z,45.30
2023-03-05T03:29:01.550Z,44.22
2023-03-05T03:31:04.046Z,41.00
2023-03-05T03:33:06.466Z,40.67
2023-03-05T03:35:09.832Z,47.10
2023-03-05T03:37:12.387Z,43.27
2023-03-05T03:39:15.257Z,44.17
2023-03-05T03:41:18.924Z,46.40
2023-03-05T03:43:21.448Z,42.45
2023-03-05T03:45:24.386Z,39.08
2023-03-05T03:47:26.894Z,37.10
2023-03-05T03:49:29.375Z,35.78
2023-03-05T03:51:31.915Z,35.38
2023-03-05T03:53:34.338Z,34.83
2023-03-05T03:55:36.944Z,34.25
2023-03-05T03:57:39.453Z,31.87
2023-03-05T03:59:41.790Z,32.92
2023-03-05T04:01:44.199Z,33.47
2023-03-05T04:04:01.828Z,30.20
2023-03-05T04:06:07.850Z,28.88
2023-03-05T04:08:18.534Z,30.03
2023-03-05T04:10:21.039Z,30.33
2023-03-05T04:12:32.442Z,32.03
2023-03-05T04:14:35.087Z,31.73
2023-03-05T04:16:37.598Z,30.27
2023-03-05T04:18:40.238Z,32.27
2023-03-05T04:20:42.641Z,32.60
2023-03-05T04:22:45.159Z,34.95
2023-03-05T04:24:47.674Z,33.90
2023-03-05T04:26:50.017Z,32.67
2023-03-05T04:28:52.476Z,32.60
2023-03-05T04:30:55.033Z,34.80
2023-03-05T04:32:57.729Z,32.70
2023-03-05T04:35:00.488Z,35.50
2023-03-05T04:37:02.921Z,33.28
2023-03-05T04:39:05.842Z,36.47
2023-03-05T04:41:08.262Z,36.60
2023-03-05T04:43:10.724Z,36.47
2023-03-05T04:45:13.740Z,33.47
2023-03-05T04:47:17.005Z,33.15
2023-03-05T04:49:19.420Z,33.50
2023-03-05T04:51:21.786Z,35.95
2023-03-05T04:53:24.858Z,33.50
2023-03-05T04:55:27.526Z,34.20
2023-03-05T04:57:29.901Z,32.13
2023-03-05T04:59:32.432Z,34.40
2023-03-05T05:01:35.543Z,35.38
2023-03-05T05:03:38.346Z,34.83
2023-03-05T05:05:40.918Z,32.33
2023-03-05T05:07:43.653Z,33.53
2023-03-05T05:09:46.097Z,33.90
2023-03-05T05:11:48.468Z,35.08
2023-03-05T05:13:50.965Z,42.55
2023-03-05T05:15:54.116Z,38.13
2023-03-05T05:17:56.623Z,54.28
2023-03-05T05:19:59.513Z,52.10
2023-03-05T05:22:02.367Z,43.72
2023-03-05T05:24:05.219Z,41.10
2023-03-05T05:26:09.758Z,39.05
2023-03-05T05:28:12.680Z,41.65
2023-03-05T05:30:24.320Z,38.60
2023-03-05T05:32:26.871Z,39.03
2023-03-05T05:34:29.987Z,38.55
2023-03-05T05:36:32.532Z,42.17
2023-03-05T05:38:35.281Z,42.15
2023-03-05T05:40:37.748Z,42.03
2023-03-05T05:42:40.246Z,46.45
2023-03-05T05:44:42.762Z,46.58
2023-03-05T05:46:45.420Z,51.05
2023-03-05T05:48:48.813Z,47.90
2023-03-05T05:50:51.198Z,47.13
2023-03-05T05:52:59.380Z,45.35
2023-03-05T05:55:02.409Z,51.13
2023-03-05T05:57:04.977Z,44.60
2023-03-05T05:59:07.639Z,44.30
2023-03-05T06:01:26.490Z,44.67
2023-03-05T06:03:29.582Z,45.28
2023-03-05T06:05:32.897Z,47.53
2023-03-05T06:07:36.167Z,48.28
